sensor_id;sensor_type;location;lat;lon;timestamp;pressure;altitude;pressure_sealevel;temperature;humidity
72921;BME280;61064;51.654;5.476;2022-11-20T00:01:34;101404.66;;;-1.15;76.70
72921;BME280;61064;51.654;5.476;2022-11-20T00:04:00;101416.91;;;-1.14;76.79
72921;BME280;61064;51.654;5.476;2022-11-20T00:06:27;101425.03;;;-1.09;76.80
72921;BME280;61064;51.654;5.476;2022-11-20T00:08:58;101429.34;;;-1.10;76.79
72921;BME280;61064;51.654;5.476;2022-11-20T00:11:26;101408.00;;;-1.17;76.99
72921;BME280;61064;51.654;5.476;2022-11-20T00:13:57;101423.31;;;-1.09;76.85
72921;BME280;61064;51.654;5.476;2022-11-20T00:16:24;101401.88;;;-1.18;76.98
72921;BME280;61064;51.654;5.476;2022-11-20T00:18:50;101419.91;;;-1.08;76.94
72921;BME280;61064;51.654;5.476;2022-11-20T00:21:17;101419.09;;;-1.07;77.02
72921;BME280;61064;51.654;5.476;2022-11-20T00:23:43;101401.88;;;-1.18;76.83
72921;BME280;61064;51.654;5.476;2022-11-20T00:26:11;101396.84;;;-1.15;76.89
72921;BME280;61064;51.654;5.476;2022-11-20T00:28:37;101387.13;;;-1.17;76.93
72921;BME280;61064;51.654;5.476;2022-11-20T00:31:05;101410.97;;;-1.11;76.85
72921;BME280;61064;51.654;5.476;2022-11-20T00:33:31;101408.00;;;-1.17;76.83
72921;BME280;61064;51.654;5.476;2022-11-20T00:36:04;101400.88;;;-1.20;76.95
72921;BME280;61064;51.654;5.476;2022-11-20T00:38:33;101396.97;;;-1.27;76.94
72921;BME280;61064;51.654;5.476;2022-11-20T00:41:00;101415.53;;;-1.22;76.90
72921;BME280;61064;51.654;5.476;2022-11-20T00:43:26;101399.56;;;-1.27;76.98
72921;BME280;61064;51.654;5.476;2022-11-20T00:45:59;101402.81;;;-1.31;76.98
72921;BME280;61064;51.654;5.476;2022-11-20T00:48:25;101388.38;;;-1.39;77.17
72921;BME280;61064;51.654;5.476;2022-11-20T00:50:50;101374.53;;;-1.38;77.41
72921;BME280;61064;51.654;5.476;2022-11-20T00:53:16;101395.38;;;-1.24;77.28
72921;BME280;61064;51.654;5.476;2022-11-20T00:55:41;101385.56;;;-1.29;77.20
72921;BME280;61064;51.654;5.476;2022-11-20T00:58:06;101392.56;;;-1.28;77.03
72921;BME280;61064;51.654;5.476;2022-11-20T01:00:32;101380.75;;;-1.36;77.24
72921;BME280;61064;51.654;5.476;2022-11-20T01:02:57;101384.28;;;-1.35;77.17
72921;BME280;61064;51.654;5.476;2022-11-20T01:05:22;101405.94;;;-1.36;77.08
72921;BME280;61064;51.654;5.476;2022-11-20T01:07:47;101399.31;;;-1.44;77.18
72921;BME280;61064;51.654;5.476;2022-11-20T01:10:13;101402.97;;;-1.55;77.09
72921;BME280;61064;51.654;5.476;2022-11-20T01:12:38;101397.78;;;-1.69;77.33
72921;BME280;61064;51.654;5.476;2022-11-20T01:15:04;101414.63;;;-1.63;77.45
72921;BME280;61064;51.654;5.476;2022-11-20T01:17:31;101413.63;;;-1.65;77.90
72921;BME280;61064;51.654;5.476;2022-11-20T01:19:56;101401.00;;;-1.73;78.16
72921;BME280;61064;51.654;5.476;2022-11-20T01:22:21;101414.41;;;-1.67;77.97
72921;BME280;61064;51.654;5.476;2022-11-20T01:24:46;101412.72;;;-1.66;78.07
72921;BME280;61064;51.654;5.476;2022-11-20T01:27:12;101406.00;;;-1.62;78.17
72921;BME280;61064;51.654;5.476;2022-11-20T01:29:37;101387.44;;;-1.67;78.05
72921;BME280;61064;51.654;5.476;2022-11-20T01:32:02;101414.31;;;-1.55;77.80
72921;BME280;61064;51.654;5.476;2022-11-20T01:34:28;101395.59;;;-1.62;77.88
72921;BME280;61064;51.654;5.476;2022-11-20T01:36:53;101375.63;;;-1.62;77.68
72921;BME280;61064;51.654;5.476;2022-11-20T01:39:21;101400.47;;;-1.54;77.62
72921;BME280;61064;51.654;5.476;2022-11-20T01:41:51;101382.44;;;-1.64;77.70
72921;BME280;61064;51.654;5.476;2022-11-20T01:47:17;101407.22;;;-1.57;77.51
72921;BME280;61064;51.654;5.476;2022-11-20T01:49:50;101419.53;;;-1.55;77.85
72921;BME280;61064;51.654;5.476;2022-11-20T01:52:20;101415.72;;;-1.60;77.63
72921;BME280;61064;51.654;5.476;2022-11-20T01:54:51;101406.72;;;-1.65;77.70
72921;BME280;61064;51.654;5.476;2022-11-20T01:57:18;101406.59;;;-1.67;77.61
72921;BME280;61064;51.654;5.476;2022-11-20T01:59:54;101383.69;;;-1.85;77.87
72921;BME280;61064;51.654;5.476;2022-11-20T02:02:22;101409.66;;;-1.74;77.89
72921;BME280;61064;51.654;5.476;2022-11-20T02:04:51;101377.56;;;-1.86;78.17
72921;BME280;61064;51.654;5.476;2022-11-20T02:07:19;101398.03;;;-1.79;77.98
72921;BME280;61064;51.654;5.476;2022-11-20T02:09:45;101403.03;;;-1.82;78.07
72921;BME280;61064;51.654;5.476;2022-11-20T02:12:10;101405.00;;;-1.78;77.98
72921;BME280;61064;51.654;5.476;2022-11-20T02:14:56;101395.31;;;-1.80;77.79
72921;BME280;61064;51.654;5.476;2022-11-20T02:17:23;101406.19;;;-1.73;78.24
72921;BME280;61064;51.654;5.476;2022-11-20T02:19:48;101368.53;;;-1.91;77.84
72921;BME280;61064;51.654;5.476;2022-11-20T02:22:21;101369.13;;;-1.95;78.15
72921;BME280;61064;51.654;5.476;2022-11-20T02:24:51;101395.09;;;-1.83;77.91
72921;BME280;61064;51.654;5.476;2022-11-20T02:27:16;101390.69;;;-1.84;78.28
72921;BME280;61064;51.654;5.476;2022-11-20T02:29:47;101394.78;;;-1.88;78.09
72921;BME280;61064;51.654;5.476;2022-11-20T02:32:23;101389.41;;;-1.91;78.16
72921;BME280;61064;51.654;5.476;2022-11-20T02:34:48;101386.19;;;-1.87;78.29
72921;BME280;61064;51.654;5.476;2022-11-20T02:37:14;101385.09;;;-1.90;78.36
72921;BME280;61064;51.654;5.476;2022-11-20T02:39:41;101351.59;;;-2.11;78.10
72921;BME280;61064;51.654;5.476;2022-11-20T02:42:07;101377.56;;;-1.99;78.17
72921;BME280;61064;51.654;5.476;2022-11-20T02:44:32;101379.19;;;-2.01;78.25
72921;BME280;61064;51.654;5.476;2022-11-20T02:46:58;101383.00;;;-1.96;78.34
72921;BME280;61064;51.654;5.476;2022-11-20T02:49:24;101380.97;;;-2.00;78.31
72921;BME280;61064;51.654;5.476;2022-11-20T02:51:50;101372.16;;;-2.02;78.17
72921;BME280;61064;51.654;5.476;2022-11-20T02:54:15;101381.06;;;-1.98;78.08
72921;BME280;61064;51.654;5.476;2022-11-20T02:56:40;101363.16;;;-2.07;78.26
72921;BME280;61064;51.654;5.476;2022-11-20T02:59:06;101373.13;;;-2.00;78.00
72921;BME280;61064;51.654;5.476;2022-11-20T03:01:33;101357.31;;;-2.16;78.29
72921;BME280;61064;51.654;5.476;2022-11-20T03:03:58;101358.22;;;-2.16;78.27
72921;BME280;61064;51.654;5.476;2022-11-20T03:06:23;101360.72;;;-2.17;78.25
72921;BME280;61064;51.654;5.476;2022-11-20T03:08:49;101369.78;;;-2.12;78.23
72921;BME280;61064;51.654;5.476;2022-11-20T03:11:14;101365.25;;;-2.15;78.03
72921;BME280;61064;51.654;5.476;2022-11-20T03:13:39;101366.56;;;-2.08;78.25
72921;BME280;61064;51.654;5.476;2022-11-20T03:16:07;101361.34;;;-2.08;78.27
72921;BME280;61064;51.654;5.476;2022-11-20T03:18:32;101373.75;;;-2.04;78.02
72921;BME280;61064;51.654;5.476;2022-11-20T03:20:58;101326.75;;;-2.32;78.38
72921;BME280;61064;51.654;5.476;2022-11-20T03:23:24;101374.75;;;-2.15;78.43
72921;BME280;61064;51.654;5.476;2022-11-20T03:25:49;101368.47;;;-2.19;78.43
72921;BME280;61064;51.654;5.476;2022-11-20T03:28:15;101344.59;;;-2.25;78.44
72921;BME280;61064;51.654;5.476;2022-11-20T03:30:40;101336.97;;;-2.22;78.35
72921;BME280;61064;51.654;5.476;2022-11-20T03:33:05;101346.00;;;-2.17;78.26
72921;BME280;61064;51.654;5.476;2022-11-20T03:35:31;101354.03;;;-2.14;78.41
72921;BME280;61064;51.654;5.476;2022-11-20T03:37:57;101343.72;;;-2.12;78.25
72921;BME280;61064;51.654;5.476;2022-11-20T03:40:22;101345.31;;;-2.14;78.32
72921;BME280;61064;51.654;5.476;2022-11-20T03:42:47;101347.09;;;-2.13;78.17
72921;BME280;61064;51.654;5.476;2022-11-20T03:45:17;101347.91;;;-2.14;78.39
72921;BME280;61064;51.654;5.476;2022-11-20T03:47:43;101343.50;;;-2.15;78.19
72921;BME280;61064;51.654;5.476;2022-11-20T03:50:10;101336.06;;;-2.22;78.26
72921;BME280;61064;51.654;5.476;2022-11-20T03:52:37;101345.69;;;-2.21;78.29
72921;BME280;61064;51.654;5.476;2022-11-20T03:55:04;101351.22;;;-2.30;78.34
72921;BME280;61064;51.654;5.476;2022-11-20T03:57:29;101337.56;;;-2.39;78.41
72921;BME280;61064;51.654;5.476;2022-11-20T03:59:54;101335.81;;;-2.40;78.71
72921;BME280;61064;51.654;5.476;2022-11-20T04:02:19;101328.78;;;-2.41;78.84
72921;BME280;61064;51.654;5.476;2022-11-20T04:04:45;101328.06;;;-2.38;78.87
72921;BME280;61064;51.654;5.476;2022-11-20T04:07:10;101334.56;;;-2.32;78.77
72921;BME280;61064;51.654;5.476;2022-11-20T04:09:35;101332.19;;;-2.29;78.79
72921;BME280;61064;51.654;5.476;2022-11-20T04:12:01;101314.97;;;-2.40;78.88
72921;BME280;61064;51.654;5.476;2022-11-20T04:14:26;101321.03;;;-2.39;78.82
72921;BME280;61064;51.654;5.476;2022-11-20T04:16:51;101317.34;;;-2.43;78.64
72921;BME280;61064;51.654;5.476;2022-11-20T04:19:16;101320.47;;;-2.35;78.77
72921;BME280;61064;51.654;5.476;2022-11-20T04:21:43;101327.06;;;-2.27;78.94
72921;BME280;61064;51.654;5.476;2022-11-20T04:24:09;101320.88;;;-2.29;78.81
72921;BME280;61064;51.654;5.476;2022-11-20T04:26:35;101314.44;;;-2.34;78.64
72921;BME280;61064;51.654;5.476;2022-11-20T04:29:00;101329.06;;;-2.23;78.67
72921;BME280;61064;51.654;5.476;2022-11-20T04:31:30;101327.06;;;-2.27;78.33
72921;BME280;61064;51.654;5.476;2022-11-20T04:34:05;101313.03;;;-2.29;78.64
72921;BME280;61064;51.654;5.476;2022-11-20T04:36:32;101303.63;;;-2.40;78.46
72921;BME280;61064;51.654;5.476;2022-11-20T04:38:59;101315.31;;;-2.34;78.62
72921;BME280;61064;51.654;5.476;2022-11-20T04:41:35;101311.84;;;-2.34;78.61
72921;BME280;61064;51.654;5.476;2022-11-20T04:44:02;101294.41;;;-2.48;79.06
72921;BME280;61064;51.654;5.476;2022-11-20T04:46:30;101317.63;;;-2.38;78.85
72921;BME280;61064;51.654;5.476;2022-11-20T04:48:55;101323.06;;;-2.35;78.95
72921;BME280;61064;51.654;5.476;2022-11-20T04:51:21;101313.34;;;-2.38;78.63
72921;BME280;61064;51.654;5.476;2022-11-20T04:53:47;101305.41;;;-2.39;78.81
72921;BME280;61064;51.654;5.476;2022-11-20T04:56:13;101319.84;;;-2.31;78.58
72921;BME280;61064;51.654;5.476;2022-11-20T04:58:39;101315.44;;;-2.32;78.70
72921;BME280;61064;51.654;5.476;2022-11-20T05:01:15;101312.81;;;-2.32;78.35
72921;BME280;61064;51.654;5.476;2022-11-20T05:03:41;101288.50;;;-2.46;78.50
72921;BME280;61064;51.654;5.476;2022-11-20T05:06:08;101292.88;;;-2.45;78.61
72921;BME280;61064;51.654;5.476;2022-11-20T05:08:34;101301.72;;;-2.43;78.87
72921;BME280;61064;51.654;5.476;2022-11-20T05:11:04;101303.22;;;-2.46;78.79
72921;BME280;61064;51.654;5.476;2022-11-20T05:13:30;101286.69;;;-2.60;78.87
72921;BME280;61064;51.654;5.476;2022-11-20T05:16:01;101288.91;;;-2.53;79.10
72921;BME280;61064;51.654;5.476;2022-11-20T05:18:26;101265.56;;;-2.65;78.72
72921;BME280;61064;51.654;5.476;2022-11-20T05:20:55;101278.75;;;-2.62;78.85
72921;BME280;61064;51.654;5.476;2022-11-20T05:23:21;101293.88;;;-2.56;78.99
72921;BME280;61064;51.654;5.476;2022-11-20T05:25:47;101285.88;;;-2.59;78.94
72921;BME280;61064;51.654;5.476;2022-11-20T05:28:12;101294.59;;;-2.59;78.93
72921;BME280;61064;51.654;5.476;2022-11-20T05:30:37;101279.88;;;-2.58;79.41
72921;BME280;61064;51.654;5.476;2022-11-20T05:33:02;101286.97;;;-2.56;79.06
72921;BME280;61064;51.654;5.476;2022-11-20T05:35:28;101284.28;;;-2.57;79.21
72921;BME280;61064;51.654;5.476;2022-11-20T05:37:53;101291.28;;;-2.56;79.09
72921;BME280;61064;51.654;5.476;2022-11-20T05:40:18;101286.78;;;-2.59;78.98
72921;BME280;61064;51.654;5.476;2022-11-20T05:42:44;101274.47;;;-2.61;78.91
72921;BME280;61064;51.654;5.476;2022-11-20T05:45:09;101266.97;;;-2.70;78.96
72921;BME280;61064;51.654;5.476;2022-11-20T05:47:34;101282.09;;;-2.64;78.97
72921;BME280;61064;51.654;5.476;2022-11-20T05:50:00;101284.69;;;-2.64;78.90
72921;BME280;61064;51.654;5.476;2022-11-20T05:52:29;101290.09;;;-2.61;79.32
72921;BME280;61064;51.654;5.476;2022-11-20T05:54:55;101283.78;;;-2.65;79.09
72921;BME280;61064;51.654;5.476;2022-11-20T05:57:20;101302.59;;;-2.56;79.05
72921;BME280;61064;51.654;5.476;2022-11-20T05:59:45;101309.63;;;-2.55;79.06
72921;BME280;61064;51.654;5.476;2022-11-20T06:02:10;101310.81;;;-2.49;79.21
72921;BME280;61064;51.654;5.476;2022-11-20T06:04:36;101275.56;;;-2.71;78.98
72921;BME280;61064;51.654;5.476;2022-11-20T06:07:01;101300.84;;;-2.57;79.03
72921;BME280;61064;51.654;5.476;2022-11-20T06:09:26;101290.97;;;-2.61;79.00
72921;BME280;61064;51.654;5.476;2022-11-20T06:11:52;101316.81;;;-2.51;79.07
72921;BME280;61064;51.654;5.476;2022-11-20T06:14:17;101296.19;;;-2.61;79.36
72921;BME280;61064;51.654;5.476;2022-11-20T06:16:42;101305.44;;;-2.53;79.15
72921;BME280;61064;51.654;5.476;2022-11-20T06:19:08;101315.25;;;-2.48;79.37
72921;BME280;61064;51.654;5.476;2022-11-20T06:21:33;101324.47;;;-2.40;79.15
72921;BME280;61064;51.654;5.476;2022-11-20T06:23:58;101304.03;;;-2.47;79.21
72921;BME280;61064;51.654;5.476;2022-11-20T06:26:26;101300.81;;;-2.43;79.40
72921;BME280;61064;51.654;5.476;2022-11-20T06:28:53;101313.44;;;-2.36;79.38
72921;BME280;61064;51.654;5.476;2022-11-20T06:31:21;101300.59;;;-2.33;79.51
72921;BME280;61064;51.654;5.476;2022-11-20T06:33:47;101299.78;;;-2.32;79.45
72921;BME280;61064;51.654;5.476;2022-11-20T06:36:15;101290.59;;;-2.40;79.43
72921;BME280;61064;51.654;5.476;2022-11-20T06:38:41;101281.78;;;-2.42;79.49
72921;BME280;61064;51.654;5.476;2022-11-20T06:41:11;101306.31;;;-2.26;79.52
72921;BME280;61064;51.654;5.476;2022-11-20T06:43:36;101309.50;;;-2.17;79.59
72921;BME280;61064;51.654;5.476;2022-11-20T06:46:02;101284.56;;;-2.26;79.62
72921;BME280;61064;51.654;5.476;2022-11-20T06:48:28;101302.41;;;-2.19;79.35
72921;BME280;61064;51.654;5.476;2022-11-20T06:50:54;101270.34;;;-2.31;79.48
72921;BME280;61064;51.654;5.476;2022-11-20T06:53:19;101293.19;;;-2.14;79.78
72921;BME280;61064;51.654;5.476;2022-11-20T06:55:45;101285.06;;;-2.19;79.67
72921;BME280;61064;51.654;5.476;2022-11-20T06:58:12;101289.78;;;-2.13;80.06
72921;BME280;61064;51.654;5.476;2022-11-20T07:00:38;101272.63;;;-2.23;79.76
72921;BME280;61064;51.654;5.476;2022-11-20T07:03:07;101275.63;;;-2.17;79.84
72921;BME280;61064;51.654;5.476;2022-11-20T07:05:34;101270.50;;;-2.15;79.58
72921;BME280;61064;51.654;5.476;2022-11-20T07:07:59;101282.13;;;-2.10;79.72
72921;BME280;61064;51.654;5.476;2022-11-20T07:10:25;101282.13;;;-2.10;79.63
72921;BME280;61064;51.654;5.476;2022-11-20T07:12:51;101273.34;;;-2.12;79.84
72921;BME280;61064;51.654;5.476;2022-11-20T07:15:18;101270.50;;;-2.15;79.73
72921;BME280;61064;51.654;5.476;2022-11-20T07:17:43;101262.50;;;-2.18;79.92
72921;BME280;61064;51.654;5.476;2022-11-20T07:20:09;101270.09;;;-2.08;79.73
72921;BME280;61064;51.654;5.476;2022-11-20T07:22:35;101255.09;;;-2.12;79.85
72921;BME280;61064;51.654;5.476;2022-11-20T07:25:01;101289.66;;;-2.01;79.75
72921;BME280;61064;51.654;5.476;2022-11-20T07:27:27;101283.25;;;-2.06;80.01
72921;BME280;61064;51.654;5.476;2022-11-20T07:29:52;101264.41;;;-2.16;79.81
72921;BME280;61064;51.654;5.476;2022-11-20T07:32:18;101260.09;;;-2.15;79.86
72921;BME280;61064;51.654;5.476;2022-11-20T07:34:43;101269.50;;;-2.04;80.10
72921;BME280;61064;51.654;5.476;2022-11-20T07:37:08;101243.38;;;-2.19;79.95
72921;BME280;61064;51.654;5.476;2022-11-20T07:39:34;101266.09;;;-2.03;80.14
72921;BME280;61064;51.654;5.476;2022-11-20T07:41:59;101270.88;;;-1.96;80.42
72921;BME280;61064;51.654;5.476;2022-11-20T07:44:24;101245.03;;;-2.06;80.34
72921;BME280;61064;51.654;5.476;2022-11-20T07:46:50;101257.34;;;-1.90;80.15
72921;BME280;61064;51.654;5.476;2022-11-20T07:49:15;101266.63;;;-1.81;80.37
72921;BME280;61064;51.654;5.476;2022-11-20T07:51:40;101255.28;;;-1.81;80.44
72921;BME280;61064;51.654;5.476;2022-11-20T07:54:05;101273.50;;;-1.68;80.12
72921;BME280;61064;51.654;5.476;2022-11-20T07:56:31;101277.38;;;-1.61;80.28
72921;BME280;61064;51.654;5.476;2022-11-20T07:58:56;101288.19;;;-1.55;80.30
72921;BME280;61064;51.654;5.476;2022-11-20T08:01:21;101280.34;;;-1.55;80.66
72921;BME280;61064;51.654;5.476;2022-11-20T08:03:47;101297.38;;;-1.47;80.17
72921;BME280;61064;51.654;5.476;2022-11-20T08:06:12;101287.13;;;-1.44;80.54
72921;BME280;61064;51.654;5.476;2022-11-20T08:08:37;101283.28;;;-1.36;80.29
72921;BME280;61064;51.654;5.476;2022-11-20T08:11:04;101270.94;;;-1.39;80.39
72921;BME280;61064;51.654;5.476;2022-11-20T08:13:48;101274.84;;;-1.32;80.43
72921;BME280;61064;51.654;5.476;2022-11-20T08:16:32;101270.63;;;-1.30;80.70
72921;BME280;61064;51.654;5.476;2022-11-20T08:18:58;101275.41;;;-1.23;80.73
72921;BME280;61064;51.654;5.476;2022-11-20T08:21:23;101269.44;;;-1.20;80.59
72921;BME280;61064;51.654;5.476;2022-11-20T08:23:49;101254.78;;;-1.18;80.67
72921;BME280;61064;51.654;5.476;2022-11-20T08:26:14;101254.31;;;-1.11;80.72
72921;BME280;61064;51.654;5.476;2022-11-20T08:28:39;101254.53;;;-1.08;80.98
72921;BME280;61064;51.654;5.476;2022-11-20T08:31:05;101250.38;;;-1.05;81.12
72921;BME280;61064;51.654;5.476;2022-11-20T08:33:30;101261.44;;;-0.94;80.87
72921;BME280;61064;51.654;5.476;2022-11-20T08:36:01;101262.00;;;-0.85;81.10
72921;BME280;61064;51.654;5.476;2022-11-20T08:38:27;101266.84;;;-0.76;80.96
72921;BME280;61064;51.654;5.476;2022-11-20T08:40:56;101241.25;;;-0.82;81.26
72921;BME280;61064;51.654;5.476;2022-11-20T08:43:40;101261.34;;;-0.66;81.17
72921;BME280;61064;51.654;5.476;2022-11-20T08:46:05;101257.47;;;-0.58;81.53
72921;BME280;61064;51.654;5.476;2022-11-20T08:48:30;101253.31;;;-0.55;81.30
72921;BME280;61064;51.654;5.476;2022-11-20T08:50:58;101269.53;;;-0.46;81.12
72921;BME280;61064;51.654;5.476;2022-11-20T08:53:24;101245.66;;;-0.52;81.45
72921;BME280;61064;51.654;5.476;2022-11-20T08:55:49;101253.44;;;-0.37;81.33
72921;BME280;61064;51.654;5.476;2022-11-20T08:58:14;101268.03;;;-0.26;81.43
72921;BME280;61064;51.654;5.476;2022-11-20T09:00:40;101233.53;;;-0.35;81.33
72921;BME280;61064;51.654;5.476;2022-11-20T09:03:05;101253.72;;;-0.16;81.60
72921;BME280;61064;51.654;5.476;2022-11-20T09:05:30;101242.66;;;-0.12;81.21
72921;BME280;61064;51.654;5.476;2022-11-20T09:07:57;101250.19;;;-0.02;81.52
72921;BME280;61064;51.654;5.476;2022-11-20T09:10:22;101233.84;;;0.02;81.37
72921;BME280;61064;51.654;5.476;2022-11-20T09:12:51;101246.78;;;0.15;81.58
72921;BME280;61064;51.654;5.476;2022-11-20T09:15:17;101249.78;;;0.23;81.28
72921;BME280;61064;51.654;5.476;2022-11-20T09:17:52;101232.47;;;0.25;81.40
72921;BME280;61064;51.654;5.476;2022-11-20T09:20:18;101242.34;;;0.30;81.40
72921;BME280;61064;51.654;5.476;2022-11-20T09:22:43;101248.16;;;0.41;81.53
72921;BME280;61064;51.654;5.476;2022-11-20T09:25:09;101230.75;;;0.41;81.35
72921;BME280;61064;51.654;5.476;2022-11-20T09:27:34;101222.09;;;0.43;81.42
72921;BME280;61064;51.654;5.476;2022-11-20T09:30:00;101230.63;;;0.56;81.00
72921;BME280;61064;51.654;5.476;2022-11-20T09:32:26;101200.56;;;0.48;81.52
72921;BME280;61064;51.654;5.476;2022-11-20T09:34:51;101196.59;;;0.56;81.45
72921;BME280;61064;51.654;5.476;2022-11-20T09:37:16;101225.16;;;0.68;81.48
72921;BME280;61064;51.654;5.476;2022-11-20T09:39:41;101206.75;;;0.66;81.78
72921;BME280;61064;51.654;5.476;2022-11-20T09:50:36;101212.00;;;1.00;82.08
72921;BME280;61064;51.654;5.476;2022-11-20T09:54:00;101196.28;;;1.00;81.78
72921;BME280;61064;51.654;5.476;2022-11-20T09:56:01;101206.53;;;1.13;81.78
72921;BME280;61064;51.654;5.476;2022-11-20T09:58:40;101197.84;;;1.14;81.65
72921;BME280;61064;51.654;5.476;2022-11-20T10:01:23;101203.31;;;1.19;81.54
72921;BME280;61064;51.654;5.476;2022-11-20T10:04:02;101204.59;;;1.27;82.02
72921;BME280;61064;51.654;5.476;2022-11-20T10:06:34;101181.66;;;1.23;82.02
72921;BME280;61064;51.654;5.476;2022-11-20T10:09:16;101180.47;;;1.34;82.29
72921;BME280;61064;51.654;5.476;2022-11-20T10:25:41;101155.13;;;1.70;81.82
72921;BME280;61064;51.654;5.476;2022-11-20T10:28:18;101144.91;;;1.76;81.92
72921;BME280;61064;51.654;5.476;2022-11-20T10:31:03;101131.72;;;1.75;82.14
72921;BME280;61064;51.654;5.476;2022-11-20T10:33:33;101103.56;;;1.71;81.81
72921;BME280;61064;51.654;5.476;2022-11-20T10:36:21;101135.28;;;1.94;82.00
72921;BME280;61064;51.654;5.476;2022-11-20T10:39:02;101083.78;;;1.77;81.92
72921;BME280;61064;51.654;5.476;2022-11-20T10:41:38;101093.13;;;1.91;81.92
72921;BME280;61064;51.654;5.476;2022-11-20T10:44:11;101079.31;;;1.95;81.99
72921;BME280;61064;51.654;5.476;2022-11-20T10:46:43;101072.63;;;2.02;81.96
72921;BME280;61064;51.654;5.476;2022-11-20T10:49:15;101074.78;;;2.11;82.08
72921;BME280;61064;51.654;5.476;2022-11-20T10:51:47;101076.81;;;2.18;82.09
72921;BME280;61064;51.654;5.476;2022-11-20T10:54:32;101049.63;;;2.16;82.03
72921;BME280;61064;51.654;5.476;2022-11-20T10:59:54;101065.38;;;2.36;82.54
72921;BME280;61064;51.654;5.476;2022-11-20T11:02:29;101064.00;;;2.44;82.30
72921;BME280;61064;51.654;5.476;2022-11-20T11:04:56;101058.09;;;2.50;82.34
72921;BME280;61064;51.654;5.476;2022-11-20T11:07:30;101033.38;;;2.45;82.36
72921;BME280;61064;51.654;5.476;2022-11-20T11:09:59;101056.75;;;2.60;82.54
72921;BME280;61064;51.654;5.476;2022-11-20T11:12:25;101020.31;;;2.46;82.17
72921;BME280;61064;51.654;5.476;2022-11-20T11:14:53;101038.22;;;2.57;81.95
72921;BME280;61064;51.654;5.476;2022-11-20T11:20:07;101009.50;;;2.39;82.04
72921;BME280;61064;51.654;5.476;2022-11-20T11:22:48;101021.38;;;2.51;82.43
72921;BME280;61064;51.654;5.476;2022-11-20T11:27:53;101034.91;;;2.61;82.29
72921;BME280;61064;51.654;5.476;2022-11-20T11:30:21;101039.44;;;2.65;82.38
72921;BME280;61064;51.654;5.476;2022-11-20T11:32:47;101010.94;;;2.53;82.35
72921;BME280;61064;51.654;5.476;2022-11-20T11:35:25;101025.50;;;2.66;82.71
72921;BME280;61064;51.654;5.476;2022-11-20T11:37:54;101023.75;;;2.66;82.38
72921;BME280;61064;51.654;5.476;2022-11-20T11:40:26;101032.78;;;2.73;82.47
72921;BME280;61064;51.654;5.476;2022-11-20T11:42:59;101026.94;;;2.80;82.32
72921;BME280;61064;51.654;5.476;2022-11-20T11:45:26;100996.72;;;2.69;82.63
72921;BME280;61064;51.654;5.476;2022-11-20T11:47:54;101018.53;;;2.88;82.47
72921;BME280;61064;51.654;5.476;2022-11-20T11:50:25;101026.59;;;2.93;82.93
72921;BME280;61064;51.654;5.476;2022-11-20T11:53:02;100997.63;;;2.91;82.49
72921;BME280;61064;51.654;5.476;2022-11-20T12:00:44;100977.81;;;3.00;82.63
72921;BME280;61064;51.654;5.476;2022-11-20T12:03:27;100974.53;;;3.05;82.80
72921;BME280;61064;51.654;5.476;2022-11-20T12:06:01;100960.50;;;3.05;82.60
72921;BME280;61064;51.654;5.476;2022-11-20T12:08:52;100963.53;;;3.15;82.77
72921;BME280;61064;51.654;5.476;2022-11-20T12:11:30;100952.88;;;3.12;82.57
72921;BME280;61064;51.654;5.476;2022-11-20T12:14:02;100944.31;;;3.18;82.57
72921;BME280;61064;51.654;5.476;2022-11-20T12:16:35;100928.69;;;3.21;82.82
72921;BME280;61064;51.654;5.476;2022-11-20T12:19:01;100923.72;;;3.28;82.74
72921;BME280;61064;51.654;5.476;2022-11-20T12:21:32;100902.16;;;3.15;82.66
72921;BME280;61064;51.654;5.476;2022-11-20T12:29:46;100893.78;;;3.25;83.01
72921;BME280;61064;51.654;5.476;2022-11-20T12:32:31;100909.00;;;3.33;82.89
72921;BME280;61064;51.654;5.476;2022-11-20T12:36:00;100885.34;;;3.33;82.85
72921;BME280;61064;51.654;5.476;2022-11-20T12:47:38;100879.13;;;3.31;82.96
72921;BME280;61064;51.654;5.476;2022-11-20T12:50:23;100875.88;;;3.39;83.11
72921;BME280;61064;51.654;5.476;2022-11-20T12:52:56;100867.09;;;3.38;83.45
72921;BME280;61064;51.654;5.476;2022-11-20T12:58:00;100862.19;;;3.49;83.51
72921;BME280;61064;51.654;5.476;2022-11-20T13:00:30;100847.38;;;3.51;83.48
72921;BME280;61064;51.654;5.476;2022-11-20T13:03:13;100851.16;;;3.59;83.55
72921;BME280;61064;51.654;5.476;2022-11-20T13:05:57;100838.16;;;3.63;83.62
72921;BME280;61064;51.654;5.476;2022-11-20T13:09:14;100846.25;;;3.69;83.29
72921;BME280;61064;51.654;5.476;2022-11-20T13:11:16;100827.06;;;3.72;83.46
72921;BME280;61064;51.654;5.476;2022-11-20T13:19:29;100799.16;;;3.77;83.32
72921;BME280;61064;51.654;5.476;2022-11-20T13:21:55;100786.00;;;3.77;83.44
72921;BME280;61064;51.654;5.476;2022-11-20T13:27:20;100770.16;;;3.75;83.68
72921;BME280;61064;51.654;5.476;2022-11-20T13:29:46;100774.78;;;3.83;83.70
72921;BME280;61064;51.654;5.476;2022-11-20T13:32:18;100781.16;;;3.89;83.47
72921;BME280;61064;51.654;5.476;2022-11-20T13:34:53;100769.72;;;3.89;83.50
72921;BME280;61064;51.654;5.476;2022-11-20T13:37:32;100771.53;;;3.90;83.50
72921;BME280;61064;51.654;5.476;2022-11-20T13:42:39;100756.75;;;3.95;83.92
72921;BME280;61064;51.654;5.476;2022-11-20T13:45:20;100756.91;;;3.99;83.61
72921;BME280;61064;51.654;5.476;2022-11-20T13:47:50;100762.22;;;4.01;83.79
72921;BME280;61064;51.654;5.476;2022-11-20T13:50:16;100754.16;;;3.96;83.68
72921;BME280;61064;51.654;5.476;2022-11-20T14:00:22;100721.59;;;3.93;83.97
72921;BME280;61064;51.654;5.476;2022-11-20T14:03:09;100735.03;;;4.02;83.82
72921;BME280;61064;51.654;5.476;2022-11-20T14:05:46;100723.53;;;3.98;84.09
72921;BME280;61064;51.654;5.476;2022-11-20T14:08:23;100728.09;;;4.04;83.97
72921;BME280;61064;51.654;5.476;2022-11-20T14:10:50;100714.88;;;4.02;84.17
72921;BME280;61064;51.654;5.476;2022-11-20T14:13:18;100699.84;;;3.98;84.10
72921;BME280;61064;51.654;5.476;2022-11-20T14:15:44;100705.22;;;4.03;84.24